Bookmark and Share
Track history (hours):
 

DSV Avianna

Last reported at 2012-Aug-11 14:29 UTC. Time now 2014-Apr-23 09:20 UTC.
Position N 27°26' W 015°16'.
Warning: this ship's position is years out of date!

Length 78 m; draft 4.7 m.

Type: Tug. MMSI: 572326210.

NotesDate/timePositionNaut miles runAvg speedWind from/ knotsBaromVisibWave heightAir tempDewpointWater temp
2012-Aug-11 14:29N 27°26' W 015°16'154 9.6
2012-Aug-10 22:24N 29°52' W 014°18'37 9.5
2012-Aug-10 18:29N 30°27' W 014°04'10 9.6
2012-Aug-10 17:27N 30°36' W 014°01'378 9.5
2012-Aug-09 01:32N 36°42' W 012°06'64 9.1
2012-Aug-08 18:33N 37°44' W 011°49'29 9.3
2012-Aug-08 15:29N 38°12' W 011°40'9 9.5
2012-Aug-08 14:31N 38°21' W 011°38'37 9.4
2012-Aug-08 10:36N 38°57' W 011°27'  
2012-Aug-04 05:31N 50°37' E 000°30'910.0
2012-Aug-04 04:36N 50°42' E 000°42'10 9.1
2012-Aug-04 03:29N 50°48' E 000°55'21 7.1
2012-Aug-04 00:33N 51°01' E 001°21'6 6.1
2012-Aug-03 23:33N 51°05' E 001°29'8 8.2
2012-Aug-03 22:33N 51°10' E 001°39'1010.1
2012-Aug-03 21:33N 51°17' E 001°50'1111.1
2012-Aug-03 20:33N 51°27' E 001°58'1010.2
2012-Aug-03 19:33N 51°35' E 002°09'9 9.3
2012-Aug-03 18:33N 51°42' E 002°19'  

Dump ship's entire track history

sailing weather and tide predictions

DSV Avianna — T2YS3 — position and weather